createdAt,value
2023-02-11T00:00:12.124Z,50.60
2023-02-11T00:02:38.686Z,49.67
2023-02-11T00:05:05.461Z,59.13
2023-02-11T00:07:33.181Z,49.20
2023-02-11T00:09:59.744Z,56.20
2023-02-11T00:12:26.240Z,54.33
2023-02-11T00:14:52.777Z,53.90
2023-02-11T00:17:19.465Z,50.20
2023-02-11T00:19:49.824Z,56.23
2023-02-11T00:22:16.330Z,53.17
2023-02-11T00:24:42.802Z,53.27
2023-02-11T00:27:09.279Z,47.73
2023-02-11T00:29:37.479Z,51.53
2023-02-11T00:32:05.290Z,50.63
2023-02-11T00:34:32.884Z,53.33
2023-02-11T00:36:59.520Z,49.10
2023-02-11T00:39:25.983Z,53.57
2023-02-11T00:41:52.425Z,46.47
2023-02-11T00:44:18.923Z,54.10
2023-02-11T00:46:45.452Z,46.03
2023-02-11T00:49:11.993Z,55.03
2023-02-11T00:51:38.424Z,55.27
2023-02-11T00:54:05.205Z,50.87
2023-02-11T00:56:31.715Z,54.57
2023-02-11T00:58:58.410Z,47.33
2023-02-11T01:01:24.967Z,49.63
2023-02-11T01:03:51.421Z,54.97
2023-02-11T01:06:18.004Z,48.97
2023-02-11T01:08:44.479Z,50.27
2023-02-11T01:11:15.477Z,45.07
2023-02-11T01:13:42.686Z,48.17
2023-02-11T01:16:10.462Z,48.97
2023-02-11T01:18:37.121Z,45.73
2023-02-11T01:21:03.893Z,57.03
2023-02-11T01:23:30.381Z,51.90
2023-02-11T01:25:57.028Z,48.47
2023-02-11T01:28:25.530Z,52.03
2023-02-11T01:30:52.768Z,50.20
2023-02-11T01:33:19.515Z,49.17
2023-02-11T01:35:46.191Z,47.20
2023-02-11T01:38:18.238Z,48.30
2023-02-11T01:40:49.915Z,49.83
2023-02-11T01:43:16.525Z,50.07
2023-02-11T01:46:00.050Z,51.73
2023-02-11T01:48:30.859Z,45.57
2023-02-11T01:51:01.781Z,48.40
2023-02-11T01:53:52.840Z,47.33
2023-02-11T01:56:39.006Z,52.53
2023-02-11T01:59:13.688Z,42.00
2023-02-11T02:01:40.807Z,42.40
2023-02-11T02:04:08.432Z,49.07
2023-02-11T02:06:41.016Z,44.63
2023-02-11T02:09:17.767Z,44.10
2023-02-11T02:11:44.288Z,40.60
2023-02-11T02:14:10.846Z,49.63
2023-02-11T02:16:37.806Z,38.07
2023-02-11T02:19:39.875Z,40.97
2023-02-11T02:22:41.829Z,42.53
2023-02-11T02:25:37.484Z,41.47
2023-02-11T02:28:37.293Z,43.03
2023-02-11T02:31:25.036Z,44.03
2023-02-11T02:34:19.936Z,39.20
2023-02-11T02:36:56.684Z,38.93
2023-02-11T02:39:29.378Z,45.33
2023-02-11T02:41:56.675Z,42.17
2023-02-11T02:44:23.681Z,41.70
2023-02-11T02:46:50.322Z,45.93
2023-02-11T02:49:17.204Z,37.20
2023-02-11T02:51:55.772Z,41.10
2023-02-11T02:54:29.567Z,39.90
2023-02-11T02:57:14.932Z,41.33
2023-02-11T02:59:57.920Z,43.17
2023-02-11T03:02:35.316Z,41.47
2023-02-11T03:05:29.214Z,41.93
2023-02-11T03:08:22.465Z,39.03
2023-02-11T03:10:51.363Z,39.30
2023-02-11T03:13:19.642Z,38.47
2023-02-11T03:15:50.506Z,44.73
2023-02-11T03:18:19.433Z,40.53
2023-02-11T03:20:49.505Z,36.50
2023-02-11T03:23:19.738Z,33.80
2023-02-11T03:25:52.308Z,39.27
2023-02-11T03:28:34.795Z,36.93
2023-02-11T03:31:22.897Z,39.77
2023-02-11T03:33:55.608Z,41.73
2023-02-11T03:36:56.976Z,37.70
2023-02-11T03:39:27.255Z,36.97
2023-02-11T03:41:55.816Z,33.70
2023-02-11T03:44:22.993Z,33.37
2023-02-11T03:46:51.578Z,35.57
2023-02-11T03:49:20.329Z,34.47
2023-02-11T03:51:47.994Z,34.77
2023-02-11T03:54:18.043Z,36.43
2023-02-11T03:56:52.153Z,39.03
2023-02-11T03:59:19.026Z,40.43
2023-02-11T04:01:45.458Z,38.37
2023-02-11T04:04:11.926Z,34.07
2023-02-11T04:06:38.604Z,36.27
2023-02-11T04:09:05.175Z,34.73
2023-02-11T04:11:31.887Z,40.20
2023-02-11T04:13:58.420Z,39.57
2023-02-11T04:16:25.074Z,33.43
2023-02-11T04:18:51.509Z,35.67
2023-02-11T04:21:17.947Z,35.97
2023-02-11T04:23:44.445Z,31.63
2023-02-11T04:26:10.976Z,32.77
2023-02-11T04:28:37.444Z,35.80
2023-02-11T04:31:03.984Z,37.00
2023-02-11T04:33:30.619Z,32.03
2023-02-11T04:35:57.029Z,30.23
2023-02-11T04:38:26.255Z,32.60
2023-02-11T04:40:52.750Z,32.10
2023-02-11T04:43:19.152Z,32.03
2023-02-11T04:45:45.570Z,31.90
2023-02-11T04:48:12.037Z,37.43
2023-02-11T04:50:39.748Z,35.10
2023-02-11T04:53:06.204Z,27.93
2023-02-11T04:55:32.674Z,35.40
2023-02-11T04:57:59.243Z,33.43
2023-02-11T05:00:25.663Z,37.60
2023-02-11T05:02:52.204Z,29.87
2023-02-11T05:05:18.612Z,31.23
2023-02-11T05:07:45.047Z,28.97
2023-02-11T05:10:11.691Z,28.47
2023-02-11T05:12:38.127Z,29.60
2023-02-11T05:15:05.221Z,32.40
2023-02-11T05:17:31.915Z,32.80
2023-02-11T05:19:58.338Z,30.20
2023-02-11T05:22:24.778Z,32.40
2023-02-11T05:24:51.308Z,37.33
2023-02-11T05:27:17.733Z,30.10
2023-02-11T05:29:44.174Z,30.27
2023-02-11T05:32:10.651Z,31.63
2023-02-11T05:34:37.068Z,30.87
2023-02-11T05:37:03.665Z,31.43
2023-02-11T05:39:30.321Z,29.30
2023-02-11T05:41:56.742Z,32.77
2023-02-11T05:44:23.295Z,33.23
2023-02-11T05:46:49.747Z,28.77
2023-02-11T05:49:17.232Z,31.73
2023-02-11T05:51:43.806Z,37.30
2023-02-11T05:54:10.869Z,38.07
2023-02-11T05:56:37.288Z,32.43
2023-02-11T05:59:03.794Z,29.63
2023-02-11T06:01:30.224Z,28.07
2023-02-11T06:03:56.744Z,32.93
2023-02-11T06:06:23.229Z,32.10
2023-02-11T06:08:49.660Z,32.13
2023-02-11T06:11:17.020Z,32.23
2023-02-11T06:13:43.666Z,32.70
2023-02-11T06:16:10.157Z,29.20
2023-02-11T06:18:36.686Z,32.73
2023-02-11T06:21:06.876Z,41.13
2023-02-11T06:23:33.290Z,33.47
2023-02-11T06:26:04.137Z,28.20
2023-02-11T06:28:34.613Z,29.73
2023-02-11T06:31:07.661Z,27.67
2023-02-11T06:33:34.453Z,31.67
2023-02-11T06:36:01.295Z,29.93
2023-02-11T06:38:27.936Z,30.87
2023-02-11T06:40:54.374Z,37.87
2023-02-11T06:43:20.991Z,37.33
2023-02-11T06:45:55.792Z,32.37
2023-02-11T06:48:23.709Z,30.57
2023-02-11T06:50:50.238Z,31.00
2023-02-11T06:53:16.825Z,33.43
2023-02-11T06:55:43.277Z,28.63
2023-02-11T06:58:09.720Z,30.63
2023-02-11T07:00:37.533Z,32.23
2023-02-11T07:03:04.345Z,32.80
2023-02-11T07:05:30.785Z,33.87
2023-02-11T07:07:57.374Z,33.80
2023-02-11T07:10:23.861Z,34.10
2023-02-11T07:12:50.247Z,39.67
2023-02-11T07:15:16.646Z,38.50
2023-02-11T07:17:43.110Z,33.83
2023-02-11T07:20:12.434Z,30.03
2023-02-11T07:22:38.986Z,34.30
2023-02-11T07:25:05.904Z,35.87
2023-02-11T07:27:32.336Z,34.57
2023-02-11T07:29:58.766Z,33.47
2023-02-11T07:32:25.176Z,38.40
2023-02-11T07:34:51.728Z,34.07
2023-02-11T07:37:18.714Z,32.77
2023-02-11T07:39:45.140Z,35.63
2023-02-11T07:42:11.608Z,30.13
2023-02-11T07:44:38.068Z,33.53
2023-02-11T07:47:04.610Z,30.80
2023-02-11T07:49:31.245Z,26.87
2023-02-11T07:51:57.751Z,36.57
2023-02-11T07:54:24.183Z,34.30
2023-02-11T07:56:50.827Z,30.30
2023-02-11T07:59:17.292Z,30.13
2023-02-11T08:01:43.779Z,33.10
2023-02-11T08:04:10.392Z,37.30
2023-02-11T08:06:41.361Z,27.47
2023-02-11T08:09:09.542Z,33.13
2023-02-11T08:11:36.104Z,31.27
2023-02-11T08:14:02.538Z,33.93
2023-02-11T08:16:34.001Z,28.27
2023-02-11T08:19:03.681Z,29.37
2023-02-11T08:21:30.274Z,33.80
2023-02-11T08:23:57.376Z,34.17
2023-02-11T08:26:26.203Z,25.93
2023-02-11T08:28:54.010Z,33.43
2023-02-11T08:31:23.631Z,28.53
2023-02-11T08:33:50.464Z,37.60
2023-02-11T08:36:21.017Z,27.07
2023-02-11T08:38:47.742Z,31.00
2023-02-11T08:41:16.008Z,32.13
2023-02-11T08:43:43.894Z,29.80
2023-02-11T08:46:14.032Z,25.63
2023-02-11T08:48:40.853Z,37.63
2023-02-11T08:51:17.244Z,31.90
2023-02-11T08:53:43.836Z,26.80
2023-02-11T08:56:13.352Z,29.13
2023-02-11T08:58:40.406Z,26.93
2023-02-11T09:01:11.741Z,30.03
2023-02-11T09:03:38.403Z,33.30
2023-02-11T09:06:06.871Z,31.13
2023-02-11T09:08:37.334Z,28.20
2023-02-11T09:11:04.129Z,30.57
2023-02-11T09:13:31.764Z,27.57
2023-02-11T09:15:59.268Z,25.63
2023-02-11T09:18:25.828Z,31.67
2023-02-11T09:20:52.714Z,28.60
2023-02-11T09:23:19.284Z,29.37
2023-02-11T09:25:45.844Z,27.33
2023-02-11T09:28:12.392Z,31.17
2023-02-11T09:30:39.111Z,28.53
2023-02-11T09:33:06.050Z,30.80
2023-02-11T09:35:33.224Z,27.70
2023-02-11T09:37:59.642Z,28.60
2023-02-11T09:40:26.285Z,24.13
2023-02-11T09:43:09.979Z,34.87
2023-02-11T09:45:36.516Z,27.90
2023-02-11T09:48:06.500Z,25.80
2023-02-11T09:50:40.168Z,25.30
2023-02-11T09:53:21.828Z,28.33
2023-02-11T09:55:55.633Z,29.93
2023-02-11T09:58:29.259Z,26.07
2023-02-11T10:01:03.226Z,26.57
2023-02-11T10:03:48.558Z,31.23
2023-02-11T10:06:36.893Z,25.33
2023-02-11T10:09:32.096Z,32.63
2023-02-11T10:12:12.441Z,26.60
2023-02-11T10:15:02.728Z,32.63
2023-02-11T10:17:50.576Z,23.33
2023-02-11T10:20:37.052Z,24.90
2023-02-11T10:23:17.100Z,26.90
2023-02-11T10:25:45.444Z,22.07
2023-02-11T10:28:18.236Z,24.77
2023-02-11T10:31:11.854Z,25.67
2023-02-11T10:33:56.355Z,27.93
2023-02-11T10:36:26.438Z,24.10
2023-02-11T10:38:52.982Z,29.97
2023-02-11T10:41:24.416Z,28.33
2023-02-11T10:43:51.030Z,27.07
2023-02-11T10:46:19.769Z,25.47
2023-02-11T10:48:52.831Z,25.87
2023-02-11T10:51:23.677Z,25.60
2023-02-11T10:54:13.857Z,29.30
2023-02-11T10:56:50.189Z,27.67
2023-02-11T10:59:23.761Z,29.93
2023-02-11T11:01:53.513Z,29.50
2023-02-11T11:04:26.087Z,25.77
2023-02-11T11:06:52.700Z,24.93
2023-02-11T11:09:32.828Z,25.63
2023-02-11T11:11:59.224Z,30.73
2023-02-11T11:14:29.675Z,24.00
2023-02-11T11:16:56.126Z,23.30
2023-02-11T11:19:24.364Z,24.13
2023-02-11T11:21:55.346Z,22.57
2023-02-11T11:24:22.879Z,23.97
2023-02-11T11:26:53.520Z,22.50
2023-02-11T11:29:24.270Z,25.00
2023-02-11T11:31:54.327Z,24.90
2023-02-11T11:34:29.066Z,24.60
2023-02-11T11:36:57.150Z,25.93
2023-02-11T11:39:30.064Z,31.47
2023-02-11T11:42:05.480Z,24.40
2023-02-11T11:44:36.629Z,30.70
2023-02-11T11:47:20.718Z,26.67
2023-02-11T11:49:56.874Z,28.90
2023-02-11T11:52:32.248Z,26.03
2023-02-11T11:55:05.273Z,26.20
2023-02-11T11:57:36.232Z,30.23
2023-02-11T12:00:03.935Z,26.37
2023-02-11T12:02:55.376Z,25.90
2023-02-11T12:05:36.483Z,19.90
2023-02-11T12:08:27.559Z,25.30
2023-02-11T12:11:06.098Z,25.73
2023-02-11T12:13:39.436Z,23.47
2023-02-11T12:16:45.398Z,20.97
2023-02-11T12:19:15.087Z,25.80
2023-02-11T12:21:45.642Z,27.00
2023-02-11T12:24:23.816Z,27.57
2023-02-11T12:27:07.663Z,21.17
2023-02-11T12:30:21.815Z,23.60
2023-02-11T12:33:00.789Z,23.73
2023-02-11T12:36:04.763Z,26.70
2023-02-11T12:38:46.873Z,22.87
2023-02-11T12:42:03.991Z,19.53
2023-02-11T12:44:46.211Z,23.90
2023-02-11T12:47:51.630Z,27.10
2023-02-11T12:50:28.149Z,25.93
2023-02-11T12:53:09.942Z,22.90
2023-02-11T12:55:43.631Z,17.43
2023-02-11T12:58:29.643Z,27.00
2023-02-11T13:01:06.889Z,18.57
2023-02-11T13:03:40.925Z,21.77
2023-02-11T13:06:10.899Z,18.53
2023-02-11T13:08:46.311Z,24.97
2023-02-11T13:11:16.703Z,28.57
2023-02-11T13:13:46.298Z,27.23
2023-02-11T13:16:40.847Z,20.13
2023-02-11T13:19:13.652Z,21.27
2023-02-11T13:22:04.868Z,21.57
2023-02-11T13:24:57.261Z,23.50
2023-02-11T13:27:36.938Z,22.40
2023-02-11T13:30:24.406Z,25.70
2023-02-11T13:32:53.776Z,25.57
2023-02-11T13:35:34.872Z,25.03
2023-02-11T13:38:16.713Z,22.70
2023-02-11T13:40:44.078Z,30.33
2023-02-11T13:43:25.534Z,23.57
2023-02-11T13:45:52.439Z,32.67
2023-02-11T13:48:24.618Z,21.87
2023-02-11T13:50:53.893Z,20.20
2023-02-11T13:53:21.291Z,19.97
2023-02-11T13:55:50.138Z,28.40
2023-02-11T13:58:28.835Z,22.27
2023-02-11T14:00:55.744Z,24.10
2023-02-11T14:03:46.902Z,23.20
2023-02-11T14:06:40.639Z,26.30
2023-02-11T14:09:30.070Z,21.33
2023-02-11T14:12:22.924Z,19.13
2023-02-11T14:15:22.105Z,28.10
2023-02-11T14:17:48.566Z,22.40
2023-02-11T14:20:36.953Z,20.97
2023-02-11T14:23:04.899Z,19.87
2023-02-11T14:25:32.023Z,26.07
2023-02-11T14:28:23.383Z,28.77
2023-02-11T14:31:10.679Z,25.17
2023-02-11T14:33:52.217Z,34.40
2023-02-11T14:36:52.406Z,27.90
2023-02-11T14:39:18.758Z,24.60
2023-02-11T14:41:47.671Z,26.87
2023-02-11T14:44:20.029Z,28.93
2023-02-11T14:46:50.402Z,28.03
2023-02-11T14:49:25.046Z,25.33
2023-02-11T14:51:53.530Z,23.83
2023-02-11T14:54:25.392Z,22.87
2023-02-11T14:57:14.736Z,24.63
2023-02-11T14:59:59.860Z,25.50
2023-02-11T15:02:34.050Z,23.50
2023-02-11T15:05:33.096Z,30.37
2023-02-11T15:08:03.197Z,25.90
2023-02-11T15:10:36.101Z,22.53
2023-02-11T15:13:03.923Z,30.97
2023-02-11T15:15:31.879Z,26.47
2023-02-11T15:18:01.483Z,26.73
2023-02-11T15:20:31.753Z,22.43
2023-02-11T15:23:07.917Z,26.17
2023-02-11T15:25:36.141Z,29.37
2023-02-11T15:28:16.621Z,25.20
2023-02-11T15:30:43.403Z,23.80
2023-02-11T15:33:22.285Z,23.20
2023-02-11T15:35:48.914Z,24.23
2023-02-11T15:38:15.500Z,24.73
2023-02-11T15:40:52.673Z,26.97
2023-02-11T15:43:19.438Z,22.07
2023-02-11T15:45:56.424Z,22.27
2023-02-11T15:48:26.793Z,30.37
2023-02-11T15:51:05.001Z,25.23
2023-02-11T15:53:38.135Z,29.33
2023-02-11T15:56:12.613Z,25.87
2023-02-11T15:58:40.581Z,29.23
2023-02-11T16:01:07.892Z,31.40
2023-02-11T16:03:34.538Z,22.83
2023-02-11T16:06:35.110Z,26.27
2023-02-11T16:09:06.175Z,27.70
2023-02-11T16:11:34.850Z,22.97
2023-02-11T16:14:05.823Z,29.10
2023-02-11T16:16:34.300Z,22.03
2023-02-11T16:19:06.359Z,30.40
2023-02-11T16:21:39.146Z,29.37
2023-02-11T16:24:07.416Z,25.10
2023-02-11T16:26:36.865Z,23.47
2023-02-11T16:29:14.690Z,30.73
2023-02-11T16:31:43.767Z,33.53
2023-02-11T16:34:18.643Z,31.87
2023-02-11T16:36:46.193Z,31.83
2023-02-11T16:39:12.934Z,25.37
2023-02-11T16:41:39.499Z,24.43
2023-02-11T16:44:06.120Z,22.13
2023-02-11T16:46:33.271Z,29.00
2023-02-11T16:49:09.097Z,28.87
2023-02-11T16:51:38.951Z,29.63
2023-02-11T16:54:05.767Z,25.90
2023-02-11T16:56:32.271Z,29.33
2023-02-11T16:58:58.884Z,24.20
2023-02-11T17:01:25.395Z,34.23
2023-02-11T17:03:52.944Z,21.60
2023-02-11T17:06:19.568Z,26.87
2023-02-11T17:08:46.178Z,24.03
2023-02-11T17:11:17.318Z,21.53
2023-02-11T17:13:46.108Z,25.40
2023-02-11T17:16:18.121Z,29.77
2023-02-11T17:18:44.911Z,18.70
2023-02-11T17:21:11.584Z,29.17
2023-02-11T17:23:38.217Z,29.00
2023-02-11T17:26:05.133Z,30.73
2023-02-11T17:28:32.433Z,21.43
2023-02-11T17:30:59.645Z,18.00
2023-02-11T17:33:26.628Z,27.97
2023-02-11T17:35:53.389Z,35.97
2023-02-11T17:38:20.391Z,26.87
2023-02-11T17:40:46.818Z,22.43
2023-02-11T17:43:13.342Z,27.33
2023-02-11T17:45:42.949Z,25.27
2023-02-11T17:48:09.566Z,29.53
2023-02-11T17:50:36.922Z,22.17
2023-02-11T17:53:03.364Z,27.00
2023-02-11T17:55:33.102Z,25.13
2023-02-11T17:57:59.940Z,21.17
2023-02-11T18:00:28.211Z,21.57
2023-02-11T18:02:57.526Z,26.53
2023-02-11T18:05:26.616Z,29.53
2023-02-11T18:07:54.942Z,22.60
2023-02-11T18:10:21.875Z,26.77
2023-02-11T18:12:48.745Z,21.20
2023-02-11T18:15:15.941Z,22.40
2023-02-11T18:17:42.693Z,19.33
2023-02-11T18:20:09.547Z,22.03
2023-02-11T18:22:39.363Z,19.13
2023-02-11T18:25:07.386Z,24.77
2023-02-11T18:27:33.989Z,24.37
2023-02-11T18:30:00.533Z,24.83
2023-02-11T18:32:27.137Z,25.27
2023-02-11T18:34:53.561Z,24.07
2023-02-11T18:37:20.117Z,20.73
2023-02-11T18:39:46.559Z,22.33
2023-02-11T18:42:13.012Z,24.17
2023-02-11T18:44:39.549Z,27.67
2023-02-11T18:47:05.976Z,26.67
2023-02-11T18:49:33.030Z,28.47
2023-02-11T18:51:59.528Z,28.10
2023-02-11T18:54:26.028Z,26.37
2023-02-11T18:56:53.033Z,33.13
2023-02-11T18:59:19.571Z,28.73
2023-02-11T19:01:46.988Z,31.40
2023-02-11T19:04:18.899Z,29.50
2023-02-11T19:06:47.782Z,28.53
2023-02-11T19:09:16.382Z,24.50
2023-02-11T19:11:53.944Z,27.17
2023-02-11T19:14:26.663Z,25.87
2023-02-11T19:16:55.578Z,23.67
2023-02-11T19:19:24.346Z,30.00
2023-02-11T19:21:50.841Z,26.77
2023-02-11T19:24:19.876Z,23.13
2023-02-11T19:26:47.633Z,26.63
2023-02-11T19:29:14.160Z,19.67
2023-02-11T19:31:41.226Z,27.93
2023-02-11T19:34:08.273Z,22.87
2023-02-11T19:36:34.782Z,27.93
2023-02-11T19:39:02.340Z,38.47
2023-02-11T19:41:29.682Z,20.00
2023-02-11T19:43:57.012Z,26.47
2023-02-11T19:46:25.249Z,27.03
2023-02-11T19:48:52.094Z,25.60
2023-02-11T19:51:19.520Z,20.50
2023-02-11T19:53:46.412Z,28.40
2023-02-11T19:56:13.386Z,26.60
2023-02-11T19:58:40.764Z,29.53
2023-02-11T20:01:12.868Z,36.10
2023-02-11T20:03:42.167Z,25.23
2023-02-11T20:06:12.108Z,30.30
2023-02-11T20:08:38.678Z,24.00
2023-02-11T20:11:06.476Z,30.77
2023-02-11T20:13:34.140Z,27.07
2023-02-11T20:16:09.243Z,31.20
2023-02-11T20:18:36.819Z,32.37
2023-02-11T20:21:11.660Z,35.57
2023-02-11T20:23:40.194Z,28.83
2023-02-11T20:26:07.588Z,25.00
2023-02-11T20:28:35.303Z,24.67
2023-02-11T20:31:02.181Z,33.67
2023-02-11T20:33:29.961Z,22.80
2023-02-11T20:36:01.651Z,29.00
2023-02-11T20:38:28.201Z,34.80
2023-02-11T20:40:55.082Z,25.77
2023-02-11T20:43:22.114Z,25.17
2023-02-11T20:45:49.058Z,31.80
2023-02-11T20:48:15.513Z,23.47
2023-02-11T20:50:41.897Z,22.03
2023-02-11T20:53:08.380Z,30.13
2023-02-11T20:55:37.796Z,22.50
2023-02-11T20:58:05.707Z,19.80
2023-02-11T21:00:33.677Z,23.40
2023-02-11T21:03:00.320Z,28.07
2023-02-11T21:05:26.900Z,27.90
2023-02-11T21:07:53.806Z,24.93
2023-02-11T21:10:20.452Z,22.67
2023-02-11T21:12:49.755Z,22.53
2023-02-11T21:15:16.633Z,27.13
2023-02-11T21:17:43.067Z,23.37
2023-02-11T21:20:10.141Z,30.60
2023-02-11T21:22:36.785Z,21.40
2023-02-11T21:25:03.282Z,25.93
2023-02-11T21:27:33.071Z,30.00
2023-02-11T21:30:00.760Z,22.73
2023-02-11T21:32:27.590Z,21.23
2023-02-11T21:34:54.159Z,27.23
2023-02-11T21:37:21.441Z,22.60
2023-02-11T21:39:48.178Z,19.83
2023-02-11T21:42:14.680Z,27.03
2023-02-11T21:44:41.136Z,23.67
2023-02-11T21:47:07.573Z,28.13
2023-02-11T21:49:34.032Z,28.63
2023-02-11T21:52:00.697Z,25.07
2023-02-11T21:54:31.956Z,29.27
2023-02-11T21:56:59.669Z,26.33
2023-02-11T21:59:26.160Z,31.10
2023-02-11T22:01:52.581Z,32.10
2023-02-11T22:04:19.254Z,40.80
2023-02-11T22:06:45.798Z,26.97
2023-02-11T22:09:12.415Z,25.13
2023-02-11T22:11:39.200Z,32.00
2023-02-11T22:14:05.854Z,29.97
2023-02-11T22:16:33.505Z,25.77
2023-02-11T22:19:02.333Z,27.93
2023-02-11T22:21:29.281Z,25.00
2023-02-11T22:23:56.208Z,25.50
2023-02-11T22:26:24.710Z,27.90
2023-02-11T22:28:51.870Z,25.17
2023-02-11T22:31:21.947Z,23.40
2023-02-11T22:33:48.601Z,22.90
2023-02-11T22:36:27.242Z,24.87
2023-02-11T22:38:54.828Z,31.83
2023-02-11T22:41:22.378Z,26.27
2023-02-11T22:43:49.561Z,27.27
2023-02-11T22:46:18.112Z,31.50
2023-02-11T22:48:44.985Z,27.20
2023-02-11T22:51:13.974Z,24.13
2023-02-11T22:53:40.627Z,30.07
2023-02-11T22:56:09.144Z,25.93
2023-02-11T22:58:36.521Z,24.20
2023-02-11T23:01:04.605Z,30.97
2023-02-11T23:03:31.783Z,32.13
2023-02-11T23:06:00.139Z,24.60
2023-02-11T23:08:27.751Z,23.90
2023-02-11T23:10:54.208Z,23.80
2023-02-11T23:13:20.969Z,22.87
2023-02-11T23:15:47.618Z,31.00
2023-02-11T23:18:15.359Z,31.87
2023-02-11T23:20:43.356Z,31.87
2023-02-11T23:23:09.863Z,28.33
2023-02-11T23:25:42.490Z,32.10
2023-02-11T23:28:09.380Z,24.57
2023-02-11T23:30:35.893Z,27.30
2023-02-11T23:33:02.343Z,29.37
2023-02-11T23:35:28.937Z,29.27
2023-02-11T23:37:55.669Z,27.57
2023-02-11T23:40:22.401Z,32.93
2023-02-11T23:42:49.229Z,36.07
2023-02-11T23:45:16.067Z,37.17
2023-02-11T23:47:42.732Z,28.27
2023-02-11T23:50:09.652Z,27.63
2023-02-11T23:52:36.196Z,29.27
2023-02-11T23:55:02.720Z,28.57
2023-02-11T23:57:31.432Z,23.90
2023-02-11T23:59:58.022Z,33.07
